Crymych, United Kingdom
Current Conditions -  °F | °C
As of 8:50 PM on Wednesday 26 Nov 2014 (Local Time) from EGOP Reporting Station
Few Clouds Few Clouds  
Wind Chill:   Ceiling: Unl
Heat Index:   Visibility: 0.03mi
Dew Point: -1°   Wind: 2mph
Humidity: 93%   Direction: 50°NE
Pressure: 29.8"   Gusts: NA
Location:  52.03°N, 4.68°W
Report Text: EGOP 262050Z AUTO 05002KT 0050 // FEW002/// 00/M01 Q1009
Loading
Personal Weather Stations






























Interactive Weather Map New forecast layout! Learn more

10-Day Weather Forecast

Advertisements
Track Severe Weather on mobile